MOD weather

Modesto City Co-Harry Sham Field
Modesto, California, United States

Public forecast

Using degrees Fahrenheit for public forecast. Weather courtesy of forecast.io.

METAR (pilot weather report)

Retrieved 2019/08/22 16:53 UTC (34 minutes ago):

KMOD 221653Z 32009KT 10SM CLR 27/18 A2978 RMK AO2 SLP084 T02670178

TAF (pilot weather forecast)

Retrieved 2019/08/22 12:24 UTC (5 hours ago):

TAF KMOD 221120Z 2212/2312 32008KT P6SM SCT250